Time;durP1;ratioP1;P1;durP2;ratioP2;P2;SDS_P1;SDS_P2;PMS_P1;PMS_P2;Temp;Humidity;BMP_temperature;BMP_pressure;BME280_temperature;BME280_humidity;BME280_pressure;Samples;Min_cycle;Max_cycle;Signal;HPM_P1;HPM_P2
2022/09/22 00:01:08;;;;;;;15.30;6.82;;;;;;;;;;4435889;32;20466;-63
2022/09/22 00:03:35;;;;;;;17.65;8.15;;;;;;;;;;4435864;32;20420;-64
2022/09/22 00:06:03;;;;;;;12.75;7.00;;;;;;;;;;4422492;32;20462;-64
2022/09/22 00:08:29;;;;;;;11.48;6.20;;;;;;;;;;4437537;32;20086;-63
2022/09/22 00:10:58;;;;;;;13.90;7.03;;;;;;;;;;4437666;32;20410;-64
2022/09/22 00:13:23;;;;;;;12.10;7.40;;;;;;;;;;4435686;32;20060;-64
2022/09/22 00:15:49;;;;;;;17.33;7.35;;;;;;;;;;4435694;32;20093;-65
2022/09/22 00:18:14;;;;;;;;;;;;;;;;;;4436114;32;20093;-63
2022/09/22 00:20:39;;;;;;;8.70;6.65;;;;;;;;;;4437253;32;19937;-64
2022/09/22 00:23:04;;;;;;;14.00;7.57;;;;;;;;;;4423495;32;20033;-63
2022/09/22 00:25:29;;;;;;;13.77;7.78;;;;;;;;;;4435434;32;20056;-63
2022/09/22 00:27:55;;;;;;;;;;;;;;;;;;4422837;32;20037;-63
2022/09/22 00:30:20;;;;;;;11.70;6.80;;;;;;;;;;4436985;32;19937;-65
2022/09/22 00:32:45;;;;;;;11.65;6.57;;;;;;;;;;4435359;32;20086;-63
2022/09/22 00:35:11;;;;;;;;;;;;;;;;;;4436148;32;20029;-65
2022/09/22 00:37:36;;;;;;;14.77;7.85;;;;;;;;;;4436811;32;19952;-64
2022/09/22 00:40:01;;;;;;;;;;;;;;;;;;4435623;32;20137;-63
2022/09/22 00:42:26;;;;;;;9.63;6.37;;;;;;;;;;4429148;32;19964;-63
2022/09/22 00:44:51;;;;;;;12.37;6.82;;;;;;;;;;4420714;32;20034;-63
2022/09/22 00:47:17;;;;;;;;;;;;;;;;;;4421943;32;20141;-63
2022/09/22 00:50:02;;;;;;;10.93;6.68;;;;;;;;;;4421817;32;19933;-63
2022/09/22 00:52:45;;;;;;;13.65;6.70;;;;;;;;;;4407570;32;20099;-63
2022/09/22 00:55:30;;;;;;;9.70;5.95;;;;;;;;;;4421531;32;20037;-64
2022/09/22 00:57:56;;;;;;;10.38;6.35;;;;;;;;;;4405925;32;20076;-64
2022/09/22 01:00:21;;;;;;;;;;;;;;;;;;4421887;32;20030;-63
2022/09/22 01:02:47;;;;;;;8.32;6.15;;;;;;;;;;4421140;32;19967;-64
2022/09/22 01:05:13;;;;;;;11.98;6.50;;;;;;;;;;4420820;32;20050;-64
2022/09/22 01:07:38;;;;;;;14.10;6.85;;;;;;;;;;4421516;32;20379;-64
2022/09/22 01:10:03;;;;;;;;;;;;;;;;;;4420306;32;20695;-64
2022/09/22 01:12:29;;;;;;;9.60;6.07;;;;;;;;;;4420454;32;19933;-64
2022/09/22 01:15:10;;;;;;;10.57;6.43;;;;;;;;;;4406072;32;20133;-63
2022/09/22 01:17:46;;;;;;;9.00;5.97;;;;;;;;;;4421442;32;20045;-64
2022/09/22 01:20:22;;;;;;;15.45;6.93;;;;;;;;;;4406019;32;20038;-64
2022/09/22 01:23:05;;;;;;;11.23;6.00;;;;;;;;;;4420543;32;20381;-65
2022/09/22 01:25:43;;;;;;;11.93;6.70;;;;;;;;;;4421206;32;20026;-65
2022/09/22 01:28:13;;;;;;;12.90;6.03;;;;;;;;;;4421778;32;20400;-64
2022/09/22 01:30:51;;;;;;;10.13;6.55;;;;;;;;;;4419906;32;20025;-64
2022/09/22 01:33:16;;;;;;;11.82;6.18;;;;;;;;;;4421578;32;20034;-63
2022/09/22 01:36:01;;;;;;;9.52;6.60;;;;;;;;;;4419996;32;20367;-62
2022/09/22 01:38:32;;;;;;;9.45;6.22;;;;;;;;;;4422303;32;20038;-63
2022/09/22 01:41:02;;;;;;;12.48;6.75;;;;;;;;;;4434551;32;20046;-63
2022/09/22 01:43:27;;;;;;;11.30;6.50;;;;;;;;;;4434864;32;20129;-64
2022/09/22 01:45:52;;;;;;;12.52;6.43;;;;;;;;;;4436243;32;20034;-64
2022/09/22 01:48:18;;;;;;;;;;;;;;;;;;4438093;32;20037;-64
2022/09/22 01:51:15;;;;;;;9.80;5.55;;;;;;;;;;4437609;32;19933;-63
2022/09/22 01:53:41;;;;;;;;;;;;;;;;;;4383467;32;20037;-62
2022/09/22 01:56:08;;;;;;;10.65;5.90;;;;;;;;;;4424856;32;19970;-64
2022/09/22 01:58:35;;;;;;;14.07;6.15;;;;;;;;;;4438924;32;20030;-63
2022/09/22 02:01:06;;;;;;;11.60;5.90;;;;;;;;;;4439248;32;20042;-63
2022/09/22 02:03:58;;;;;;;13.90;6.43;;;;;;;;;;4438895;32;20059;-63
2022/09/22 02:06:27;;;;;;;13.15;6.82;;;;;;;;;;4421779;32;20393;-63
2022/09/22 02:08:57;;;;;;;10.85;6.00;;;;;;;;;;4437407;32;20411;-64
2022/09/22 02:11:22;;;;;;;8.73;6.00;;;;;;;;;;4437317;32;20030;-63
2022/09/22 02:13:48;;;;;;;10.88;6.10;;;;;;;;;;4439214;32;20060;-62
2022/09/22 02:16:14;;;;;;;9.32;5.80;;;;;;;;;;4439354;32;20045;-63
2022/09/22 02:18:54;;;;;;;10.73;6.55;;;;;;;;;;4439315;32;20041;-62
2022/09/22 02:21:20;;;;;;;10.93;6.68;;;;;;;;;;4438524;32;20069;-62
2022/09/22 02:23:45;;;;;;;;;;;;;;;;;;4423193;32;20029;-62
2022/09/22 02:26:12;;;;;;;11.05;7.82;;;;;;;;;;4423061;32;19947;-63
2022/09/22 02:28:39;;;;;;;10.85;7.45;;;;;;;;;;4438920;32;20065;-63
2022/09/22 02:31:05;;;;;;;12.82;8.40;;;;;;;;;;4439242;32;20029;-63
2022/09/22 02:33:32;;;;;;;9.95;8.27;;;;;;;;;;4423007;32;20029;-63
2022/09/22 02:36:02;;;;;;;18.42;7.65;;;;;;;;;;4437470;32;20121;-63
2022/09/22 02:38:29;;;;;;;14.40;7.82;;;;;;;;;;4437443;32;20053;-64
2022/09/22 02:40:57;;;;;;;14.35;8.80;;;;;;;;;;4437031;32;20037;-63
2022/09/22 02:43:27;;;;;;;35.90;9.85;;;;;;;;;;4438962;32;20056;-64
2022/09/22 02:45:56;;;;;;;15.88;10.07;;;;;;;;;;4422422;32;20037;-62
2022/09/22 02:48:23;;;;;;;18.75;10.48;;;;;;;;;;4438496;32;20068;-63
2022/09/22 02:50:48;;;;;;;12.90;9.40;;;;;;;;;;4437315;32;20363;-63
2022/09/22 02:53:13;;;;;;;;;;;;;;;;;;4437255;32;20026;-63
2022/09/22 02:55:39;;;;;;;14.32;9.43;;;;;;;;;;4436719;32;19932;-64
2022/09/22 02:58:04;;;;;;;;;;;;;;;;;;4439160;32;20240;-64
2022/09/22 03:00:31;;;;;;;15.65;11.23;;;;;;;;;;4436173;32;19945;-64
2022/09/22 03:02:56;;;;;;;15.77;10.52;;;;;;;;;;4438305;32;20064;-64
2022/09/22 03:05:21;;;;;;;;;;;;;;;;;;4436902;32;20025;-63
2022/09/22 03:07:46;;;;;;;14.95;11.45;;;;;;;;;;4436686;32;20303;-63
2022/09/22 03:10:11;;;;;;;17.90;11.73;;;;;;;;;;4425539;32;20117;-63
2022/09/22 03:12:41;;;;;;;;;;;;;;;;;;4422017;32;20046;-65
2022/09/22 03:15:07;;;;;;;12.07;8.73;;;;;;;;;;4421761;32;20351;-63
2022/09/22 03:17:33;;;;;;;15.43;8.40;;;;;;;;;;4421150;32;20089;-63
2022/09/22 03:19:58;;;;;;;;;;;;;;;;;;4422770;32;20035;-63
2022/09/22 03:22:23;;;;;;;12.57;8.85;;;;;;;;;;4422915;32;19934;-62
2022/09/22 03:24:48;;;;;;;;;;;;;;;;;;4421366;32;20108;-62
2022/09/22 03:27:13;;;;;;;15.55;9.73;;;;;;;;;;4421243;32;19932;-63
2022/09/22 03:29:38;;;;;;;;;;;;;;;;;;4423405;32;20042;-61
2022/09/22 03:32:04;;;;;;;14.70;10.10;;;;;;;;;;4421453;32;20019;-63
2022/09/22 03:34:29;;;;;;;;;;;;;;;;;;4420155;32;20142;-62
2022/09/22 03:36:54;;;;;;;17.73;11.10;;;;;;;;;;4421660;32;19948;-63
2022/09/22 03:39:19;;;;;;;16.75;12.02;;;;;;;;;;4422195;32;20124;-63
2022/09/22 03:41:45;;;;;;;;;;;;;;;;;;4420913;32;20101;-63
2022/09/22 03:44:10;;;;;;;17.45;12.35;;;;;;;;;;4422537;32;19933;-62
2022/09/22 03:46:35;;;;;;;;;;;;;;;;;;4421097;32;20025;-62
2022/09/22 03:49:02;;;;;;;21.08;14.10;;;;;;;;;;4432159;32;19933;-63
2022/09/22 03:51:27;;;;;;;19.80;13.52;;;;;;;;;;4437893;32;20065;-64
2022/09/22 03:53:53;;;;;;;;;;;;;;;;;;4437824;32;20403;-63
2022/09/22 03:56:18;;;;;;;19.55;13.57;;;;;;;;;;4436482;32;19937;-63
2022/09/22 03:58:43;;;;;;;;;;;;;;;;;;4437932;32;20359;-63
2022/09/22 04:01:10;;;;;;;15.82;12.57;;;;;;;;;;4436293;32;19954;-64
2022/09/22 04:03:35;;;;;;;23.73;14.93;;;;;;;;;;4435682;32;20381;-63
2022/09/22 04:06:00;;;;;;;;;;;;;;;;;;4436322;32;20029;-63
2022/09/22 04:08:26;;;;;;;25.58;15.68;;;;;;;;;;4437290;32;19933;-61
2022/09/22 04:10:51;;;;;;;;;;;;;;;;;;4437177;32;20391;-63
2022/09/22 04:13:16;;;;;;;20.98;14.73;;;;;;;;;;4435076;32;20007;-63
2022/09/22 04:15:42;;;;;;;;;;;;;;;;;;4437344;32;20106;-65
2022/09/22 04:18:07;;;;;;;18.42;14.23;;;;;;;;;;4435443;32;19984;-62
2022/09/22 04:20:32;;;;;;;;;;;;;;;;;;4436025;32;20182;-66
2022/09/22 04:22:57;;;;;;;21.92;15.88;;;;;;;;;;4437325;32;19995;-63
2022/09/22 04:25:22;;;;;;;;;;;;;;;;;;4423518;32;20034;-62
2022/09/22 04:27:47;;;;;;;25.98;16.73;;;;;;;;;;4437522;32;20330;-63
2022/09/22 04:30:13;;;;;;;;;;;;;;;;;;4436003;32;20029;-65
2022/09/22 04:32:38;;;;;;;23.83;16.65;;;;;;;;;;4422648;32;19974;-63
2022/09/22 04:35:03;;;;;;;;;;;;;;;;;;4421590;32;20183;-63
2022/09/22 04:37:28;;;;;;;27.33;17.30;;;;;;;;;;4436387;32;19948;-62
2022/09/22 04:39:54;;;;;;;24.42;16.92;;;;;;;;;;4435223;32;20109;-63
2022/09/22 04:42:19;;;;;;;;;;;;;;;;;;4436520;32;20030;-68
2022/09/22 04:44:45;;;;;;;22.33;15.77;;;;;;;;;;4435525;32;19936;-63
2022/09/22 04:47:11;;;;;;;23.75;17.20;;;;;;;;;;4436184;32;20128;-63
2022/09/22 04:49:36;;;;;;;;;;;;;;;;;;4436072;32;20293;-64
2022/09/22 04:52:01;;;;;;;23.67;17.08;;;;;;;;;;4435624;32;20314;-62
2022/09/22 04:54:26;;;;;;;;;;;;;;;;;;4435379;32;20202;-63
2022/09/22 04:56:51;;;;;;;27.00;18.50;;;;;;;;;;4437383;32;19933;-66
2022/09/22 04:59:16;;;;;;;;;;;;;;;;;;4435398;32;20060;-67
2022/09/22 05:01:42;;;;;;;27.65;18.42;;;;;;;;;;4436900;32;19965;-70
2022/09/22 05:04:08;;;;;;;;;;;;;;;;;;4437472;32;20462;-70
2022/09/22 05:06:33;;;;;;;23.70;17.15;;;;;;;;;;4435226;32;19944;-70
2022/09/22 05:08:58;;;;;;;;;;;;;;;;;;4436838;32;20022;-69
2022/09/22 05:11:23;;;;;;;22.52;15.65;;;;;;;;;;4436273;32;19933;-68
2022/09/22 05:13:49;;;;;;;;;;;;;;;;;;4421591;32;20056;-69
2022/09/22 05:16:15;;;;;;;28.95;18.12;;;;;;;;;;4435733;32;19968;-69
2022/09/22 05:18:40;;;;;;;;;;;;;;;;;;4436000;32;20034;-69
2022/09/22 05:21:06;;;;;;;29.67;19.12;;;;;;;;;;4435648;32;19981;-70
2022/09/22 05:23:31;;;;;;;29.77;18.85;;;;;;;;;;4422637;32;20048;-68
2022/09/22 05:25:56;;;;;;;;;;;;;;;;;;4438524;32;20180;-66
2022/09/22 05:28:22;;;;;;;26.73;19.50;;;;;;;;;;4438749;32;19944;-69
2022/09/22 05:30:48;;;;;;;;;;;;;;;;;;4439636;32;20033;-69
2022/09/22 05:33:13;;;;;;;24.52;19.02;;;;;;;;;;4424124;32;20376;-68
2022/09/22 05:35:38;;;;;;;;;;;;;;;;;;4439138;32;20026;-68
2022/09/22 05:38:03;;;;;;;31.65;20.42;;;;;;;;;;4437955;32;19948;-68
2022/09/22 05:40:29;;;;;;;;;;;;;;;;;;4438592;32;20491;-65
2022/09/22 05:42:55;;;;;;;33.60;18.15;;;;;;;;;;4438796;32;19933;-70
2022/09/22 05:45:20;;;;;;;;;;;;;;;;;;4439405;32;20029;-69
2022/09/22 05:47:45;;;;;;;24.25;17.60;;;;;;;;;;4439665;32;19937;-69
2022/09/22 05:50:11;;;;;;;;;;;;;;;;;;4438418;32;20411;-69
2022/09/22 05:52:36;;;;;;;25.08;18.65;;;;;;;;;;4437544;32;19972;-69
2022/09/22 05:55:01;;;;;;;;;;;;;;;;;;4436853;32;20192;-69
2022/09/22 05:57:27;;;;;;;31.25;20.45;;;;;;;;;;4424432;32;19936;-68
2022/09/22 05:59:52;;;;;;;;;;;;;;;;;;4439294;32;20159;-68
2022/09/22 06:02:18;;;;;;;30.75;21.12;;;;;;;;;;4440131;32;19940;-70
2022/09/22 06:04:48;;;;;;;;;;;;;;;;;;4438944;32;20041;-70
2022/09/22 06:07:24;;;;;;;;;;;;;;;;;;;;;
2022/09/22 06:09:50;;;;;;;35.00;22.20;;;;;;;;;;4422316;32;20379;-70
2022/09/22 06:12:15;;;;;;;;;;;;;;;;;;4438385;32;20022;-70
2022/09/22 06:14:41;;;;;;;34.38;22.30;;;;;;;;;;4439350;32;19945;-69
2022/09/22 06:17:10;;;;;;;;;;;;;;;;;;4439431;32;20045;-70
2022/09/22 06:19:38;;;;;;;27.87;20.95;;;;;;;;;;4438421;32;19941;-69
2022/09/22 06:22:04;;;;;;;26.90;22.13;;;;;;;;;;4438356;32;20052;-69
2022/09/22 06:24:33;;;;;;;;;;;;;;;;;;4437923;32;20034;-70
2022/09/22 06:27:04;;;;;;;33.75;23.23;;;;;;;;;;4438452;32;19951;-70
2022/09/22 06:29:32;;;;;;;35.25;25.25;;;;;;;;;;4423404;32;20102;-69
2022/09/22 06:31:58;;;;;;;33.45;23.48;;;;;;;;;;4437701;32;20073;-70
2022/09/22 06:34:24;;;;;;;;;;;;;;;;;;4437572;32;20029;-70
2022/09/22 06:36:50;;;;;;;27.25;22.92;;;;;;;;;;4423550;32;19966;-70
2022/09/22 06:39:15;;;;;;;;;;;;;;;;;;4437255;32;20026;-68
2022/09/22 06:41:40;;;;;;;43.30;24.30;;;;;;;;;;4437060;32;19945;-69
2022/09/22 06:44:06;;;;;;;29.55;24.80;;;;;;;;;;4438274;32;20056;-67
2022/09/22 06:46:32;;;;;;;30.90;23.00;;;;;;;;;;4438691;32;20029;-70
2022/09/22 06:48:58;;;;;;;;;;;;;;;;;;4437649;32;20105;-64
2022/09/22 06:51:27;;;;;;;29.00;22.62;;;;;;;;;;4438767;32;19952;-64
2022/09/22 06:53:55;;;;;;;27.02;21.35;;;;;;;;;;4438748;32;20034;-66
2022/09/22 06:56:22;;;;;;;31.87;22.00;;;;;;;;;;4437732;32;20076;-65
2022/09/22 06:58:56;;;;;;;27.95;21.20;;;;;;;;;;4436354;32;20129;-70
2022/09/22 07:01:22;;;;;;;26.95;22.98;;;;;;;;;;4434246;32;20098;-68
2022/09/22 07:03:48;;;;;;;27.75;22.13;;;;;;;;;;4436205;32;20065;-71
2022/09/22 07:06:17;;;;;;;27.95;22.70;;;;;;;;;;4435795;32;20085;-70
2022/09/22 07:08:43;;;;;;;35.45;23.35;;;;;;;;;;4437313;32;20467;-70
2022/09/22 07:11:09;;;;;;;32.75;23.58;;;;;;;;;;4436916;32;20096;-62
2022/09/22 07:13:38;;;;;;;27.65;21.45;;;;;;;;;;4436917;32;20094;-63
2022/09/22 07:16:16;;;;;;;29.73;22.17;;;;;;;;;;4437733;32;20426;-65
2022/09/22 07:18:59;;;;;;;32.60;22.10;;;;;;;;;;4437386;32;20065;-70
2022/09/22 07:21:26;;;;;;;33.08;23.15;;;;;;;;;;4437498;32;20033;-69
2022/09/22 07:24:02;;;;;;;28.87;23.25;;;;;;;;;;4436488;32;20029;-69
2022/09/22 07:26:28;;;;;;;;;;;;;;;;;;4437348;32;20451;-69
2022/09/22 07:28:54;;;;;;;29.10;22.33;;;;;;;;;;4436896;32;19966;-70
2022/09/22 07:31:20;;;;;;;;;;;;;;;;;;4436779;32;20030;-71
2022/09/22 07:33:46;;;;;;;27.48;22.30;;;;;;;;;;4436634;32;19955;-69
2022/09/22 07:36:13;;;;;;;33.75;22.00;;;;;;;;;;4436710;32;20037;-69
2022/09/22 07:38:38;;;;;;;23.95;21.35;;;;;;;;;;4438277;32;20029;-69
2022/09/22 07:41:05;;;;;;;27.75;22.15;;;;;;;;;;4436324;32;20045;-65
2022/09/22 07:43:31;;;;;;;32.20;23.10;;;;;;;;;;4436739;32;20057;-68
2022/09/22 07:45:56;;;;;;;30.15;21.23;;;;;;;;;;4436852;32;20053;-69
2022/09/22 07:48:40;;;;;;;;;;;;;;;;;;4437333;32;20093;-71
2022/09/22 07:51:07;;;;;;;24.87;21.23;;;;;;;;;;4434380;32;19959;-71
2022/09/22 07:53:33;;;;;;;29.02;20.12;;;;;;;;;;4417783;32;20041;-68
2022/09/22 07:56:06;;;;;;;34.03;20.45;;;;;;;;;;4433781;32;20064;-69
2022/09/22 07:58:32;;;;;;;30.10;22.58;;;;;;;;;;4432231;32;20559;-69
2022/09/22 08:00:57;;;;;;;24.60;20.58;;;;;;;;;;4433336;32;20077;-70
2022/09/22 08:03:22;;;;;;;;;;;;;;;;;;4432733;32;20053;-71
2022/09/22 08:05:48;;;;;;;22.92;19.48;;;;;;;;;;4418818;32;19999;-70
2022/09/22 08:08:13;;;;;;;27.65;20.73;;;;;;;;;;4433161;32;20056;-70
2022/09/22 08:10:38;;;;;;;25.83;20.40;;;;;;;;;;4432786;32;20093;-70
2022/09/22 08:13:03;;;;;;;27.00;20.35;;;;;;;;;;4433008;32;20029;-70
2022/09/22 08:15:28;;;;;;;25.70;19.77;;;;;;;;;;4434236;32;20086;-68
2022/09/22 08:17:54;;;;;;;;;;;;;;;;;;4433073;32;20029;-70
2022/09/22 08:20:20;;;;;;;32.03;20.58;;;;;;;;;;4433126;32;19945;-70
2022/09/22 08:22:50;;;;;;;40.75;25.40;;;;;;;;;;4433798;32;20057;-71
2022/09/22 08:25:15;;;;;;;39.13;26.52;;;;;;;;;;4432117;32;20025;-69
2022/09/22 08:27:41;;;;;;;29.15;18.42;;;;;;;;;;4433387;32;20087;-70
2022/09/22 08:30:06;;;;;;;27.98;19.80;;;;;;;;;;4432586;32;20088;-70
2022/09/22 08:32:32;;;;;;;28.60;19.48;;;;;;;;;;4434295;32;20063;-70
2022/09/22 08:34:57;;;;;;;30.33;21.08;;;;;;;;;;4432606;32;20489;-68
2022/09/22 08:37:23;;;;;;;29.87;21.17;;;;;;;;;;4432752;32;20025;-71
2022/09/22 08:39:48;;;;;;;39.72;21.70;;;;;;;;;;4429873;32;20090;-69
2022/09/22 08:42:20;;;;;;;25.08;19.73;;;;;;;;;;4432914;32;20442;-65
2022/09/22 08:44:49;;;;;;;24.17;18.98;;;;;;;;;;4433939;32;20056;-68
2022/09/22 08:51:50;;;;;;;31.35;21.23;;;;;;;;;;4435190;32;20056;-68
2022/09/22 08:52:48;;;;;;;25.10;18.17;;;;;;;;;;4436907;32;20087;-69
2022/09/22 08:55:24;;;;;;;27.08;16.58;;;;;;;;;;4435817;32;20350;-68
2022/09/22 08:57:55;;;;;;;28.25;16.98;;;;;;;;;;4435538;32;20030;-67
2022/09/22 09:00:21;;;;;;;26.17;17.77;;;;;;;;;;4421567;32;20091;-69
2022/09/22 09:03:03;;;;;;;26.45;17.25;;;;;;;;;;4436878;32;20029;-68
2022/09/22 09:05:34;;;;;;;25.50;17.37;;;;;;;;;;4436984;32;20044;-69
2022/09/22 09:08:10;;;;;;;24.42;19.52;;;;;;;;;;4421263;32;20026;-70
2022/09/22 09:10:44;;;;;;;19.20;14.10;;;;;;;;;;4437143;32;20037;-67
2022/09/22 09:13:15;;;;;;;19.77;14.48;;;;;;;;;;4435795;32;20026;-69
2022/09/22 09:15:52;;;;;;;22.73;17.02;;;;;;;;;;4435526;32;20052;-70
2022/09/22 09:18:20;;;;;;;23.27;14.52;;;;;;;;;;4435305;32;20086;-70
2022/09/22 09:20:46;;;;;;;15.98;13.57;;;;;;;;;;4436362;32;20033;-69
2022/09/22 09:23:16;;;;;;;20.52;14.00;;;;;;;;;;4434976;32;20033;-70
2022/09/22 09:25:41;;;;;;;18.75;12.45;;;;;;;;;;4436251;32;20052;-69
2022/09/22 09:28:17;;;;;;;20.58;14.00;;;;;;;;;;4425038;32;20397;-70
2022/09/22 09:31:03;;;;;;;23.67;13.07;;;;;;;;;;4420448;32;20381;-70
2022/09/22 09:34:01;;;;;;;18.48;14.40;;;;;;;;;;4419707;32;20030;-70
2022/09/22 09:36:51;;;;;;;19.35;14.80;;;;;;;;;;4419880;32;20034;-70
2022/09/22 09:39:38;;;;;;;21.02;14.32;;;;;;;;;;4412665;32;20056;-70
2022/09/22 09:42:23;;;;;;;;;;;;;;;;;;;;;
2022/09/22 09:44:53;;;;;;;19.35;13.57;;;;;;;;;;4419714;32;20052;-69
2022/09/22 09:47:30;;;;;;;20.05;14.10;;;;;;;;;;4420349;32;20122;-69
2022/09/22 09:49:56;;;;;;;18.83;13.38;;;;;;;;;;4419695;32;20088;-70
2022/09/22 09:52:24;;;;;;;19.83;11.80;;;;;;;;;;4419676;32;20420;-68
2022/09/22 09:54:49;;;;;;;19.95;12.80;;;;;;;;;;4419413;32;20052;-69
2022/09/22 09:57:18;;;;;;;18.52;13.25;;;;;;;;;;4420048;32;20030;-70
2022/09/22 10:02:31;;;;;;;20.17;12.63;;;;;;;;;;4419689;32;20040;-69
2022/09/22 10:05:00;;;;;;;25.67;11.15;;;;;;;;;;4420193;32;20030;-69
2022/09/22 10:07:30;;;;;;;10.27;8.48;;;;;;;;;;4406408;32;20018;-69
2022/09/22 10:10:15;;;;;;;16.02;9.00;;;;;;;;;;4405477;32;20468;-69
2022/09/22 10:12:40;;;;;;;15.65;9.20;;;;;;;;;;4436432;32;20082;-70
2022/09/22 10:15:20;;;;;;;18.40;9.88;;;;;;;;;;4423369;32;20049;-68
2022/09/22 10:17:48;;;;;;;19.27;9.63;;;;;;;;;;4437680;32;20131;-69
2022/09/22 10:29:26;;;;;;;16.00;8.43;;;;;;;;;;4359808;32;20034;-68
2022/09/22 10:31:57;;;;;;;10.30;7.20;;;;;;;;;;4359790;32;20418;-63
2022/09/22 10:34:27;;;;;;;14.95;7.35;;;;;;;;;;4400609;32;20029;-68
2022/09/22 10:36:52;;;;;;;10.00;7.80;;;;;;;;;;4429866;32;20105;-70
2022/09/22 10:39:19;;;;;;;11.98;7.82;;;;;;;;;;4431982;32;20386;-69
2022/09/22 10:41:45;;;;;;;9.77;7.45;;;;;;;;;;4428507;32;20431;-70
2022/09/22 10:44:19;;;;;;;10.60;8.45;;;;;;;;;;4436529;32;20038;-70
2022/09/22 10:46:49;;;;;;;10.68;8.55;;;;;;;;;;4437634;32;20026;-70
2022/09/22 10:49:15;;;;;;;12.95;8.10;;;;;;;;;;4437411;32;20021;-70
2022/09/22 10:51:46;;;;;;;11.68;7.87;;;;;;;;;;4437359;32;20438;-69
2022/09/22 10:54:19;;;;;;;9.63;8.07;;;;;;;;;;4422889;32;20148;-70
2022/09/22 10:56:49;;;;;;;12.95;7.90;;;;;;;;;;4437373;32;20026;-69
2022/09/22 10:59:33;;;;;;;11.60;6.68;;;;;;;;;;4437865;32;20063;-72
2022/09/22 11:02:13;;;;;;;13.68;7.87;;;;;;;;;;4438650;32;20052;-71
2022/09/22 11:04:38;;;;;;;12.98;7.20;;;;;;;;;;4435770;32;20055;-68
2022/09/22 11:13:26;;;;;;;9.98;6.85;;;;;;;;;;4418597;32;20100;-70
2022/09/22 11:16:03;;;;;;;19.45;7.18;;;;;;;;;;4422436;32;20120;-70
2022/09/22 11:21:28;;;;;;;9.65;5.35;;;;;;;;;;4373866;32;20050;-70
2022/09/22 11:27:24;;;;;;;13.05;5.87;;;;;;;;;;4421925;32;20104;-69
2022/09/22 11:30:11;;;;;;;13.60;5.00;;;;;;;;;;4421275;32;20105;-69
2022/09/22 11:35:53;;;;;;;8.38;4.70;;;;;;;;;;4421137;32;20371;-70
2022/09/22 11:38:27;;;;;;;7.00;4.18;;;;;;;;;;4421426;32;20041;-69
2022/09/22 11:50:26;;;;;;;4.28;2.80;;;;;;;;;;4421334;32;20176;-69
2022/09/22 12:02:27;;;;;;;4.25;2.40;;;;;;;;;;4358671;32;20376;-69
2022/09/22 12:05:00;;;;;;;5.87;2.37;;;;;;;;;;4413192;32;20093;-70
2022/09/22 12:07:31;;;;;;;6.25;2.95;;;;;;;;;;4420531;32;20015;-70
2022/09/22 12:09:59;;;;;;;4.35;2.62;;;;;;;;;;4420970;32;20014;-68
2022/09/22 12:12:27;;;;;;;10.52;3.30;;;;;;;;;;4420268;32;20057;-70
2022/09/22 12:14:59;;;;;;;5.05;2.67;;;;;;;;;;4420564;32;20042;-70
2022/09/22 12:17:38;;;;;;;5.18;2.80;;;;;;;;;;4421346;32;20018;-69
2022/09/22 12:20:14;;;;;;;6.87;2.83;;;;;;;;;;4421740;32;20022;-69
2022/09/22 12:22:56;;;;;;;4.65;2.30;;;;;;;;;;4421275;32;20064;-68
2022/09/22 12:25:44;;;;;;;6.05;2.50;;;;;;;;;;4420626;32;20367;-70
2022/09/22 12:28:17;;;;;;;4.18;2.35;;;;;;;;;;4406664;32;20045;-70
2022/09/22 12:31:04;;;;;;;11.48;2.50;;;;;;;;;;4406502;32;20325;-70
2022/09/22 12:33:29;;;;;;;;;;;;;;;;;;4420091;32;20071;-69
2022/09/22 12:35:55;;;;;;;11.68;3.55;;;;;;;;;;4420023;32;19937;-71
2022/09/22 12:38:21;;;;;;;5.07;2.80;;;;;;;;;;4422021;32;20014;-70
2022/09/22 12:40:48;;;;;;;5.45;2.80;;;;;;;;;;4435217;32;20064;-71
2022/09/22 12:43:19;;;;;;;10.55;3.00;;;;;;;;;;4436059;32;20060;-69
2022/09/22 12:45:44;;;;;;;7.07;2.95;;;;;;;;;;4435183;32;20135;-69
2022/09/22 12:48:23;;;;;;;3.53;1.95;;;;;;;;;;4437300;32;20445;-67
2022/09/22 12:50:49;;;;;;;5.50;2.20;;;;;;;;;;4422552;32;20064;-66
2022/09/22 12:53:21;;;;;;;7.00;2.83;;;;;;;;;;4405464;32;20026;-71
2022/09/22 12:55:49;;;;;;;7.00;2.75;;;;;;;;;;4419308;32;20030;-71
2022/09/22 12:58:21;;;;;;;4.60;3.12;;;;;;;;;;4419635;32;20074;-70
2022/09/22 13:00:49;;;;;;;6.28;3.33;;;;;;;;;;4420217;32;20183;-70
2022/09/22 13:03:24;;;;;;;6.25;2.90;;;;;;;;;;4420089;32;20090;-69
2022/09/22 13:05:53;;;;;;;7.07;3.10;;;;;;;;;;4420095;32;20022;-72
2022/09/22 13:08:23;;;;;;;5.05;2.70;;;;;;;;;;4420219;32;20095;-67
2022/09/22 13:10:50;;;;;;;7.50;2.85;;;;;;;;;;4405667;32;20528;-70
2022/09/22 13:13:35;;;;;;;6.62;2.50;;;;;;;;;;4420173;32;20061;-70
2022/09/22 13:16:01;;;;;;;7.43;3.33;;;;;;;;;;4420912;32;20063;-69
2022/09/22 13:18:39;;;;;;;6.25;3.03;;;;;;;;;;4420631;32;20098;-70
2022/09/22 13:21:13;;;;;;;7.93;2.70;;;;;;;;;;4419840;32;20014;-69
2022/09/22 13:23:50;;;;;;;7.97;2.33;;;;;;;;;;4406037;32;20154;-69
2022/09/22 13:26:18;;;;;;;4.60;2.62;;;;;;;;;;4419830;32;20048;-70
2022/09/22 13:28:43;;;;;;;7.22;2.95;;;;;;;;;;4419847;32;20018;-69
2022/09/22 13:31:12;;;;;;;9.15;2.83;;;;;;;;;;4419929;32;20068;-69
2022/09/22 13:33:38;;;;;;;3.95;2.67;;;;;;;;;;4425785;32;20082;-69
2022/09/22 13:36:03;;;;;;;6.47;3.05;;;;;;;;;;4449515;32;20033;-70
2022/09/22 13:38:29;;;;;;;5.90;3.30;;;;;;;;;;4448773;32;20397;-70
2022/09/22 13:40:55;;;;;;;4.05;2.75;;;;;;;;;;4430091;32;20122;-70
2022/09/22 13:43:27;;;;;;;4.47;2.55;;;;;;;;;;4432452;32;20109;-70
2022/09/22 13:45:52;;;;;;;4.85;2.67;;;;;;;;;;4436266;32;20423;-70
2022/09/22 13:48:18;;;;;;;5.22;2.92;;;;;;;;;;4435106;32;20057;-66
2022/09/22 13:50:47;;;;;;;7.62;3.03;;;;;;;;;;4436032;32;20069;-67
2022/09/22 13:53:16;;;;;;;5.97;2.95;;;;;;;;;;4435267;32;20079;-66
2022/09/22 13:55:42;;;;;;;9.85;2.62;;;;;;;;;;4434695;32;20037;-70
2022/09/22 13:58:10;;;;;;;6.53;2.72;;;;;;;;;;4436614;32;20401;-70
2022/09/22 14:00:41;;;;;;;4.57;2.80;;;;;;;;;;4437598;32;20055;-69
2022/09/22 14:03:10;;;;;;;6.18;2.78;;;;;;;;;;4438021;32;20022;-68
2022/09/22 14:05:36;;;;;;;5.57;2.78;;;;;;;;;;4437973;32;20066;-68
2022/09/22 14:08:02;;;;;;;5.80;2.67;;;;;;;;;;4439406;32;20101;-68
2022/09/22 14:10:28;;;;;;;6.72;2.90;;;;;;;;;;4438641;32;20071;-70
2022/09/22 14:12:53;;;;;;;4.93;2.28;;;;;;;;;;4437904;32;20025;-70
2022/09/22 14:15:37;;;;;;;7.57;3.10;;;;;;;;;;4424611;32;20502;-70
2022/09/22 14:18:21;;;;;;;6.90;2.50;;;;;;;;;;4438726;32;20022;-71
2022/09/22 14:20:47;;;;;;;4.15;2.33;;;;;;;;;;4437009;32;20068;-70
2022/09/22 14:23:16;;;;;;;5.00;2.37;;;;;;;;;;4434771;32;20469;-73
2022/09/22 14:25:42;;;;;;;7.37;3.00;;;;;;;;;;4433356;32;20076;-72
2022/09/22 14:28:15;;;;;;;4.25;2.03;;;;;;;;;;4432386;32;20078;-70
2022/09/22 14:30:41;;;;;;;8.52;2.30;;;;;;;;;;4434097;32;20044;-66
2022/09/22 14:33:12;;;;;;;4.97;2.28;;;;;;;;;;4433907;32;20069;-74
2022/09/22 14:35:40;;;;;;;4.95;3.00;;;;;;;;;;4432971;32;20050;-70
2022/09/22 14:38:08;;;;;;;6.05;2.33;;;;;;;;;;4435676;32;20060;-67
2022/09/22 14:40:34;;;;;;;8.70;2.80;;;;;;;;;;4432892;32;20115;-69
2022/09/22 14:43:19;;;;;;;6.50;2.90;;;;;;;;;;4433654;32;20391;-70
2022/09/22 14:45:55;;;;;;;3.42;2.17;;;;;;;;;;4434882;32;20030;-70
2022/09/22 14:48:27;;;;;;;9.18;2.67;;;;;;;;;;4435055;32;20025;-71
2022/09/22 14:50:55;;;;;;;5.97;2.87;;;;;;;;;;4434406;32;20122;-70
2022/09/22 14:53:26;;;;;;;4.82;2.90;;;;;;;;;;4434045;32;20332;-70
2022/09/22 14:55:53;;;;;;;6.68;3.40;;;;;;;;;;4432801;32;20046;-72
2022/09/22 14:58:28;;;;;;;4.55;2.30;;;;;;;;;;4433807;32;20470;-67
2022/09/22 15:03:52;;;;;;;9.95;3.95;;;;;;;;;;4434054;32;20087;-71
2022/09/22 15:06:17;;;;;;;6.20;2.85;;;;;;;;;;4434856;32;20081;-71
2022/09/22 15:08:43;;;;;;;8.45;2.53;;;;;;;;;;4435177;32;20336;-70
2022/09/22 15:11:09;;;;;;;4.65;2.25;;;;;;;;;;4433694;32;20061;-70
2022/09/22 15:13:42;;;;;;;3.75;2.47;;;;;;;;;;4419682;32;20055;-71
2022/09/22 15:16:26;;;;;;;5.53;2.30;;;;;;;;;;4432748;32;20037;-71
2022/09/22 15:18:51;;;;;;;6.93;2.55;;;;;;;;;;4433691;32;20055;-70
2022/09/22 15:21:17;;;;;;;2.60;2.05;;;;;;;;;;4434136;32;20052;-69
2022/09/22 15:23:46;;;;;;;4.28;2.40;;;;;;;;;;4433640;32;20394;-72
2022/09/22 15:26:16;;;;;;;7.95;2.47;;;;;;;;;;4419762;32;20405;-70
2022/09/22 15:28:42;;;;;;;5.55;2.58;;;;;;;;;;4419696;32;20423;-70
2022/09/22 15:31:09;;;;;;;5.65;1.90;;;;;;;;;;4432472;32;20105;-70
2022/09/22 15:33:34;;;;;;;5.87;2.78;;;;;;;;;;4433736;32;20124;-69
2022/09/22 15:36:02;;;;;;;4.20;2.17;;;;;;;;;;4434315;32;20034;-70
2022/09/22 15:38:31;;;;;;;8.45;2.45;;;;;;;;;;4433148;32;20114;-71
2022/09/22 15:40:57;;;;;;;6.10;1.92;;;;;;;;;;4433006;32;20037;-69
2022/09/22 15:43:28;;;;;;;3.87;1.98;;;;;;;;;;4432914;32;20053;-69
2022/09/22 15:45:55;;;;;;;5.90;2.42;;;;;;;;;;4433039;32;20018;-71
2022/09/22 15:48:30;;;;;;;5.15;1.98;;;;;;;;;;4433919;32;20030;-71
2022/09/22 15:50:56;;;;;;;5.45;1.95;;;;;;;;;;4433699;32;20055;-67
2022/09/22 15:53:22;;;;;;;6.30;2.33;;;;;;;;;;4432901;32;20059;-69